createdAt,value
2019-06-26T00:01:16.253Z,23.90
2019-06-26T00:03:44.696Z,23.80
2019-06-26T00:06:13.143Z,23.80
2019-06-26T00:08:41.582Z,23.80
2019-06-26T00:11:10.032Z,23.80
2019-06-26T00:13:38.479Z,23.80
2019-06-26T00:16:06.982Z,23.80
2019-06-26T00:18:35.456Z,23.80
2019-06-26T00:21:04.012Z,23.80
2019-06-26T00:23:32.445Z,23.70
2019-06-26T00:26:00.892Z,23.70
2019-06-26T00:28:29.351Z,23.70
2019-06-26T00:30:57.780Z,23.70
2019-06-26T00:33:26.238Z,23.80
2019-06-26T00:35:54.681Z,23.80
2019-06-26T00:38:23.138Z,23.80
2019-06-26T00:40:51.565Z,23.80
2019-06-26T00:43:20.029Z,23.70
2019-06-26T00:45:48.466Z,23.60
2019-06-26T00:48:16.902Z,23.50
2019-06-26T00:50:45.339Z,23.40
2019-06-26T00:53:13.804Z,23.40
2019-06-26T00:55:42.294Z,23.40
2019-06-26T00:58:10.753Z,23.40
2019-06-26T01:00:45.245Z,23.40
2019-06-26T01:03:13.707Z,23.30
2019-06-26T01:05:42.151Z,23.30
2019-06-26T01:08:10.602Z,23.20
2019-06-26T01:10:39.043Z,23.20
2019-06-26T01:13:07.494Z,23.20
2019-06-26T01:15:35.930Z,23.10
2019-06-26T01:18:04.387Z,23.10
2019-06-26T01:20:32.820Z,23.10
2019-06-26T01:23:01.284Z,23.00
2019-06-26T01:25:29.794Z,23.00
2019-06-26T01:27:58.258Z,23.00
2019-06-26T01:30:26.858Z,22.90
2019-06-26T01:32:55.357Z,22.90
2019-06-26T01:35:23.784Z,22.90
2019-06-26T01:37:52.265Z,22.80
2019-06-26T01:40:22.465Z,22.80
2019-06-26T01:42:50.925Z,22.80
2019-06-26T01:45:19.601Z,22.90
2019-06-26T01:47:48.062Z,22.80
2019-06-26T01:50:16.579Z,22.90
2019-06-26T01:52:45.023Z,22.90
2019-06-26T01:55:13.593Z,22.80
2019-06-26T01:57:42.043Z,22.80
2019-06-26T02:00:11.920Z,22.80
2019-06-26T02:02:40.361Z,22.80
2019-06-26T02:05:09.338Z,22.90
2019-06-26T02:07:37.786Z,22.90
2019-06-26T02:10:07.279Z,23.00
2019-06-26T02:12:35.810Z,23.00
2019-06-26T02:15:08.153Z,23.00
2019-06-26T02:17:36.787Z,23.00
2019-06-26T02:20:08.355Z,23.00
2019-06-26T02:22:36.780Z,23.00
2019-06-26T02:25:06.568Z,23.00
2019-06-26T02:27:35.076Z,23.00
2019-06-26T02:30:04.864Z,23.00
2019-06-26T02:32:33.297Z,23.00
2019-06-26T02:35:01.808Z,23.00
2019-06-26T02:37:30.274Z,23.00
2019-06-26T02:39:58.734Z,23.00
2019-06-26T02:42:27.252Z,23.10
2019-06-26T02:44:55.772Z,23.10
2019-06-26T02:47:24.215Z,23.00
2019-06-26T02:49:52.694Z,23.00
2019-06-26T02:52:21.178Z,23.00
2019-06-26T02:54:49.644Z,23.00
2019-06-26T02:57:18.063Z,23.00
2019-06-26T02:59:46.510Z,23.00
2019-06-26T03:02:14.958Z,23.00
2019-06-26T03:04:43.458Z,23.00
2019-06-26T03:07:11.938Z,23.00
2019-06-26T03:09:40.394Z,22.90
2019-06-26T03:12:08.843Z,22.90
2019-06-26T03:14:37.308Z,22.90
2019-06-26T03:17:05.759Z,22.90
2019-06-26T03:19:34.231Z,22.90
2019-06-26T03:22:02.683Z,23.00
2019-06-26T03:24:31.106Z,23.00
2019-06-26T03:26:59.572Z,23.10
2019-06-26T03:29:28.009Z,23.10
2019-06-26T03:31:56.468Z,23.10
2019-06-26T03:34:24.896Z,23.20
2019-06-26T03:36:53.383Z,23.20
2019-06-26T03:39:21.870Z,23.30
2019-06-26T03:41:50.357Z,23.30
2019-06-26T03:44:18.853Z,23.20
2019-06-26T03:46:47.333Z,23.10
2019-06-26T03:49:15.759Z,23.10
2019-06-26T03:51:44.222Z,23.10
2019-06-26T03:54:12.654Z,23.10
2019-06-26T03:56:41.128Z,23.10
2019-06-26T03:59:09.566Z,23.10
2019-06-26T04:01:38.099Z,23.10
2019-06-26T04:04:06.532Z,23.10
2019-06-26T04:06:34.985Z,23.10
2019-06-26T04:09:03.532Z,23.10
2019-06-26T04:11:32.042Z,23.20
2019-06-26T04:14:00.475Z,23.30
2019-06-26T04:16:28.959Z,23.30
2019-06-26T04:18:57.446Z,23.30
2019-06-26T04:21:25.908Z,23.40
2019-06-26T04:23:54.405Z,23.50
2019-06-26T04:26:22.873Z,23.50
2019-06-26T04:28:51.309Z,23.60
2019-06-26T04:31:19.762Z,23.60
2019-06-26T04:33:48.211Z,23.70
2019-06-26T04:36:16.659Z,23.80
2019-06-26T04:38:45.109Z,23.80
2019-06-26T04:41:13.543Z,23.80
2019-06-26T04:43:41.990Z,23.90
2019-06-26T04:46:10.428Z,24.00
2019-06-26T04:48:38.881Z,24.00
2019-06-26T04:51:07.376Z,24.10
2019-06-26T04:53:35.857Z,24.20
2019-06-26T04:56:04.868Z,24.20
2019-06-26T04:58:33.333Z,24.30
2019-06-26T05:01:01.769Z,24.30
2019-06-26T05:03:30.228Z,24.40
2019-06-26T05:05:58.665Z,24.50
2019-06-26T05:08:27.121Z,24.60
2019-06-26T05:10:55.570Z,24.70
2019-06-26T05:13:24.038Z,24.70
2019-06-26T05:15:52.478Z,24.80
2019-06-26T05:18:20.927Z,24.90
2019-06-26T05:20:49.357Z,25.00
2019-06-26T05:23:17.821Z,25.10
2019-06-26T05:25:46.286Z,25.20
2019-06-26T05:28:14.740Z,25.30
2019-06-26T05:30:43.182Z,25.30
2019-06-26T05:33:11.628Z,25.30
2019-06-26T05:35:40.094Z,25.50
2019-06-26T05:38:08.731Z,25.50
2019-06-26T05:40:37.352Z,25.60
2019-06-26T05:43:05.913Z,25.70
2019-06-26T05:45:34.505Z,25.80
2019-06-26T05:48:03.075Z,25.90
2019-06-26T05:50:31.584Z,26.00
2019-06-26T05:53:00.018Z,26.20
2019-06-26T05:55:28.485Z,26.50
2019-06-26T05:57:56.915Z,26.90
2019-06-26T06:00:25.464Z,27.20
2019-06-26T06:02:54.207Z,27.30
2019-06-26T06:05:22.822Z,27.40
2019-06-26T06:07:51.261Z,27.40
2019-06-26T06:10:19.928Z,27.40
2019-06-26T06:12:48.365Z,27.30
2019-06-26T06:15:16.893Z,27.30
2019-06-26T06:17:45.330Z,27.40
2019-06-26T06:20:16.907Z,27.50
2019-06-26T06:22:45.416Z,27.50
2019-06-26T06:25:14.070Z,27.60
2019-06-26T06:27:42.582Z,27.60
2019-06-26T06:30:11.100Z,27.70
2019-06-26T06:32:39.541Z,27.70
2019-06-26T06:35:08.328Z,27.80
2019-06-26T06:37:36.770Z,27.90
2019-06-26T06:40:08.594Z,28.00
2019-06-26T06:42:37.081Z,28.10
2019-06-26T06:45:07.272Z,28.20
2019-06-26T06:47:35.710Z,28.30
2019-06-26T06:50:06.450Z,28.30
2019-06-26T06:52:35.023Z,28.50
2019-06-26T06:55:04.921Z,28.50
2019-06-26T06:57:33.441Z,28.60
2019-06-26T07:00:01.883Z,28.70
2019-06-26T07:02:30.416Z,28.80
2019-06-26T07:04:58.849Z,28.90
2019-06-26T07:07:27.306Z,29.00
2019-06-26T07:09:55.751Z,29.20
2019-06-26T07:12:24.571Z,29.30
2019-06-26T07:14:53.008Z,29.40
2019-06-26T07:17:21.641Z,29.50
2019-06-26T07:19:50.197Z,29.60
2019-06-26T07:22:18.648Z,29.70
2019-06-26T07:24:47.084Z,29.90
2019-06-26T07:27:15.541Z,30.00
2019-06-26T07:29:44.008Z,30.10
2019-06-26T07:32:12.472Z,30.20
2019-06-26T07:34:41.001Z,30.20
2019-06-26T07:37:09.477Z,30.40
2019-06-26T07:39:37.965Z,30.50
2019-06-26T07:42:06.425Z,30.70
2019-06-26T07:44:34.855Z,30.80
2019-06-26T07:47:03.306Z,31.10
2019-06-26T07:49:31.797Z,31.70
2019-06-26T07:52:00.314Z,32.40
2019-06-26T07:54:28.829Z,33.00
2019-06-26T07:56:57.378Z,33.40
2019-06-26T07:59:25.877Z,33.90
2019-06-26T08:01:54.351Z,34.20
2019-06-26T08:04:23.075Z,34.50
2019-06-26T08:06:51.501Z,34.60
2019-06-26T08:09:19.984Z,34.30
2019-06-26T08:11:48.471Z,34.50
2019-06-26T08:14:16.922Z,34.40
2019-06-26T08:16:45.354Z,34.70
2019-06-26T08:19:13.903Z,34.90
2019-06-26T08:21:42.391Z,34.60
2019-06-26T08:24:10.889Z,34.50
2019-06-26T08:26:39.327Z,34.30
2019-06-26T08:29:07.870Z,34.10
2019-06-26T08:31:36.297Z,33.90
2019-06-26T08:34:04.770Z,33.40
2019-06-26T08:36:33.205Z,33.20
2019-06-26T08:39:01.654Z,33.20
2019-06-26T08:41:30.096Z,33.20
2019-06-26T08:43:58.548Z,33.30
2019-06-26T08:46:27.062Z,33.30
2019-06-26T08:48:55.511Z,33.30
2019-06-26T08:51:23.958Z,33.30
2019-06-26T08:53:52.487Z,33.30
2019-06-26T08:56:20.942Z,33.30
2019-06-26T08:58:49.414Z,33.50
2019-06-26T09:01:17.849Z,33.70
2019-06-26T09:03:46.298Z,33.60
2019-06-26T09:06:14.734Z,33.50
2019-06-26T09:08:43.173Z,33.60
2019-06-26T09:11:11.607Z,33.70
2019-06-26T09:13:40.064Z,33.70
2019-06-26T09:16:08.562Z,33.80
2019-06-26T09:18:37.029Z,33.90
2019-06-26T09:21:05.454Z,34.00
2019-06-26T09:23:33.908Z,34.10
2019-06-26T09:26:02.340Z,34.00
2019-06-26T09:28:30.786Z,34.20
2019-06-26T09:30:59.492Z,34.30
2019-06-26T09:33:31.330Z,34.30
2019-06-26T09:35:58.086Z,34.50
2019-06-26T09:38:26.529Z,34.60
2019-06-26T09:40:54.983Z,34.70
2019-06-26T09:43:23.437Z,34.70
2019-06-26T09:45:51.885Z,34.70
2019-06-26T09:48:20.348Z,34.70
2019-06-26T09:50:48.832Z,34.90
2019-06-26T09:53:17.284Z,35.00
2019-06-26T09:55:45.713Z,35.00
2019-06-26T09:58:14.148Z,35.00
2019-06-26T10:00:42.612Z,35.00
2019-06-26T10:03:11.051Z,35.00
2019-06-26T10:05:39.514Z,35.00
2019-06-26T10:08:07.937Z,35.00
2019-06-26T10:10:36.390Z,35.00
2019-06-26T10:13:04.824Z,35.00
2019-06-26T10:15:33.292Z,35.20
2019-06-26T10:18:01.715Z,35.30
2019-06-26T10:20:30.199Z,35.40
2019-06-26T10:22:58.633Z,35.40
2019-06-26T10:25:30.163Z,35.40
2019-06-26T10:27:58.597Z,35.40
2019-06-26T10:30:27.046Z,35.40
2019-06-26T10:32:55.482Z,35.40
2019-06-26T10:35:24.702Z,35.40
2019-06-26T10:37:53.134Z,35.50
2019-06-26T10:40:21.861Z,35.50
2019-06-26T10:42:50.299Z,35.60
2019-06-26T10:45:18.896Z,35.60
2019-06-26T10:47:47.419Z,35.70
2019-06-26T10:50:16.357Z,35.80
2019-06-26T10:52:44.783Z,35.80
2019-06-26T10:55:13.642Z,35.70
2019-06-26T10:57:42.086Z,35.80
2019-06-26T11:00:11.366Z,35.90
2019-06-26T11:02:39.778Z,35.90
2019-06-26T11:05:08.559Z,36.00
2019-06-26T11:07:36.993Z,36.10
2019-06-26T11:10:08.555Z,36.10
2019-06-26T11:12:36.989Z,36.00
2019-06-26T11:15:07.975Z,36.00
2019-06-26T11:17:36.524Z,36.10
2019-06-26T11:20:07.961Z,36.20
2019-06-26T11:22:36.620Z,36.20
2019-06-26T11:25:06.874Z,36.30
2019-06-26T11:27:35.384Z,36.20
2019-06-26T11:30:06.916Z,36.30
2019-06-26T11:32:35.372Z,36.30
2019-06-26T11:35:05.994Z,36.50
2019-06-26T11:37:34.429Z,36.60
2019-06-26T11:40:02.962Z,36.50
2019-06-26T11:42:32.825Z,36.50
2019-06-26T11:45:01.556Z,36.60
2019-06-26T11:47:30.171Z,36.60
2019-06-26T11:50:00.150Z,36.40
2019-06-26T11:52:28.909Z,36.10
2019-06-26T11:55:02.531Z,36.00
2019-06-26T11:57:27.756Z,36.00
2019-06-26T11:59:56.429Z,36.00
2019-06-26T12:02:24.905Z,36.10
2019-06-26T12:04:53.402Z,36.10
2019-06-26T12:07:21.848Z,36.20
2019-06-26T12:09:50.360Z,36.20
2019-06-26T12:12:19.066Z,36.10
2019-06-26T12:14:47.546Z,36.10
2019-06-26T12:17:15.999Z,36.10
2019-06-26T12:19:44.681Z,36.20
2019-06-26T12:22:13.254Z,36.30
2019-06-26T12:24:41.680Z,36.40
2019-06-26T12:27:10.197Z,36.60
2019-06-26T12:29:38.636Z,36.60
2019-06-26T12:32:07.097Z,36.50
2019-06-26T12:34:35.508Z,36.40
2019-06-26T12:37:04.022Z,36.70
2019-06-26T12:39:32.519Z,36.90
2019-06-26T12:42:00.989Z,36.90
2019-06-26T12:44:29.423Z,36.90
2019-06-26T12:46:57.935Z,36.80
2019-06-26T12:49:26.435Z,36.70
2019-06-26T12:51:54.883Z,36.60
2019-06-26T12:54:23.356Z,36.70
2019-06-26T12:56:51.844Z,36.70
2019-06-26T12:59:20.303Z,36.60
2019-06-26T13:01:48.840Z,36.70
2019-06-26T13:04:17.309Z,36.60
2019-06-26T13:06:46.405Z,36.40
2019-06-26T13:09:14.836Z,36.50
2019-06-26T13:11:43.276Z,36.60
2019-06-26T13:14:11.706Z,36.70
2019-06-26T13:16:40.174Z,36.80
2019-06-26T13:19:08.610Z,36.80
2019-06-26T13:21:37.056Z,36.70
2019-06-26T13:24:05.509Z,36.50
2019-06-26T13:26:33.962Z,36.40
2019-06-26T13:29:02.385Z,36.40
2019-06-26T13:31:30.847Z,36.30
2019-06-26T13:33:59.754Z,36.10
2019-06-26T13:36:28.206Z,36.20
2019-06-26T13:38:56.716Z,36.20
2019-06-26T13:41:25.157Z,36.20
2019-06-26T13:43:53.593Z,36.20
2019-06-26T13:46:22.038Z,36.10
2019-06-26T13:48:50.493Z,36.10
2019-06-26T13:51:21.502Z,36.10
2019-06-26T13:53:49.103Z,36.10
2019-06-26T13:56:17.523Z,36.00
2019-06-26T13:58:45.978Z,36.00
2019-06-26T14:01:14.410Z,35.90
2019-06-26T14:03:42.854Z,35.70
2019-06-26T14:06:11.289Z,35.70
2019-06-26T14:08:39.817Z,35.70
2019-06-26T14:11:08.249Z,35.70
2019-06-26T14:13:36.714Z,35.70
2019-06-26T14:16:05.142Z,35.70
2019-06-26T14:18:33.677Z,35.70
2019-06-26T14:21:02.111Z,35.70
2019-06-26T14:23:30.563Z,35.70
2019-06-26T14:25:59.002Z,35.80
2019-06-26T14:28:27.454Z,35.90
2019-06-26T14:30:55.898Z,35.90
2019-06-26T14:33:24.383Z,36.00
2019-06-26T14:35:52.813Z,36.00
2019-06-26T14:38:21.274Z,35.90
2019-06-26T14:40:49.727Z,35.80
2019-06-26T14:43:18.170Z,35.70
2019-06-26T14:45:46.598Z,35.70
2019-06-26T14:48:15.074Z,35.60
2019-06-26T14:50:43.576Z,35.60
2019-06-26T14:53:12.023Z,35.50
2019-06-26T14:55:40.450Z,35.60
2019-06-26T14:58:08.902Z,35.60
2019-06-26T15:00:37.337Z,35.50
2019-06-26T15:03:05.791Z,35.50
2019-06-26T15:05:34.216Z,35.50
2019-06-26T15:08:02.662Z,35.50
2019-06-26T15:10:31.103Z,35.40
2019-06-26T15:12:59.565Z,35.40
2019-06-26T15:15:27.998Z,35.30
2019-06-26T15:17:56.557Z,35.30
2019-06-26T15:20:25.060Z,35.40
2019-06-26T15:22:53.519Z,35.40
2019-06-26T15:25:22.035Z,35.40
2019-06-26T15:27:50.478Z,35.40
2019-06-26T15:30:20.327Z,35.40
2019-06-26T15:32:48.789Z,35.30
2019-06-26T15:35:17.244Z,35.30
2019-06-26T15:37:45.693Z,35.30
2019-06-26T15:40:15.164Z,35.20
2019-06-26T15:42:43.607Z,35.10
2019-06-26T15:45:12.231Z,35.10
2019-06-26T15:47:40.690Z,35.10
2019-06-26T15:50:11.004Z,35.00
2019-06-26T15:52:39.667Z,35.00
2019-06-26T15:55:08.775Z,35.00
2019-06-26T15:57:37.218Z,35.00
2019-06-26T16:00:07.268Z,34.90
2019-06-26T16:02:35.745Z,34.90
2019-06-26T16:05:05.750Z,34.90
2019-06-26T16:07:34.254Z,34.90
2019-06-26T16:10:03.074Z,34.80
2019-06-26T16:12:31.547Z,34.70
2019-06-26T16:15:00.012Z,34.70
2019-06-26T16:17:32.992Z,34.70
2019-06-26T16:20:01.473Z,34.70
2019-06-26T16:22:32.685Z,34.60
2019-06-26T16:25:00.101Z,34.50
2019-06-26T16:27:28.612Z,34.40
2019-06-26T16:29:57.075Z,34.30
2019-06-26T16:32:25.504Z,34.20
2019-06-26T16:34:53.959Z,34.00
2019-06-26T16:37:22.398Z,34.00
2019-06-26T16:39:50.926Z,34.00
2019-06-26T16:42:19.358Z,33.90
2019-06-26T16:44:47.860Z,33.80
2019-06-26T16:47:16.328Z,33.70
2019-06-26T16:49:44.797Z,33.60
2019-06-26T16:52:13.232Z,33.50
2019-06-26T16:54:41.687Z,33.40
2019-06-26T16:57:10.204Z,33.30
2019-06-26T16:59:38.662Z,33.20
2019-06-26T17:02:07.297Z,33.20
2019-06-26T17:04:35.788Z,33.10
2019-06-26T17:07:04.298Z,33.00
2019-06-26T17:09:32.729Z,33.00
2019-06-26T17:12:01.174Z,32.90
2019-06-26T17:14:29.611Z,32.80
2019-06-26T17:16:58.056Z,32.80
2019-06-26T17:19:26.489Z,32.80
2019-06-26T17:21:54.938Z,32.70
2019-06-26T17:24:23.367Z,32.60
2019-06-26T17:26:51.824Z,32.50
2019-06-26T17:29:20.261Z,32.50
2019-06-26T17:31:48.719Z,32.40
2019-06-26T17:34:17.314Z,32.40
2019-06-26T17:36:45.754Z,32.40
2019-06-26T17:39:14.221Z,32.30
2019-06-26T17:41:44.129Z,32.20
2019-06-26T17:44:12.746Z,32.10
2019-06-26T17:46:41.210Z,32.00
2019-06-26T17:49:09.797Z,32.00
2019-06-26T17:51:38.323Z,31.90
2019-06-26T17:54:06.780Z,31.80
2019-06-26T17:56:36.789Z,31.70
2019-06-26T17:59:05.219Z,31.60
2019-06-26T18:01:33.845Z,31.60
2019-06-26T18:04:05.876Z,31.50
2019-06-26T18:06:32.502Z,31.40
2019-06-26T18:09:00.952Z,31.30
2019-06-26T18:11:29.403Z,31.20
2019-06-26T18:13:57.833Z,31.10
2019-06-26T18:16:26.302Z,31.10
2019-06-26T18:18:54.773Z,31.00
2019-06-26T18:21:23.266Z,30.90
2019-06-26T18:23:51.727Z,30.90
2019-06-26T18:26:20.243Z,30.80
2019-06-26T18:28:48.734Z,30.70
2019-06-26T18:31:17.190Z,30.70
2019-06-26T18:33:45.626Z,30.60
2019-06-26T18:36:14.144Z,30.60
2019-06-26T18:38:42.636Z,30.40
2019-06-26T18:41:11.095Z,30.30
2019-06-26T18:43:39.532Z,30.30
2019-06-26T18:46:07.963Z,30.20
2019-06-26T18:48:36.413Z,30.10
2019-06-26T18:51:04.877Z,30.10
2019-06-26T18:53:33.326Z,30.00
2019-06-26T18:56:01.792Z,29.90
2019-06-26T18:58:30.899Z,29.80
2019-06-26T19:00:59.411Z,29.80
2019-06-26T19:03:27.954Z,29.70
2019-06-26T19:05:56.386Z,29.60
2019-06-26T19:08:24.837Z,29.50
2019-06-26T19:10:53.276Z,29.40
2019-06-26T19:13:21.727Z,29.40
2019-06-26T19:15:50.186Z,29.30
2019-06-26T19:18:18.663Z,29.20
2019-06-26T19:20:47.143Z,29.20
2019-06-26T19:23:15.592Z,29.10
2019-06-26T19:25:44.016Z,29.00
2019-06-26T19:28:12.458Z,28.90
2019-06-26T19:30:40.890Z,28.90
2019-06-26T19:33:09.333Z,28.80
2019-06-26T19:35:39.313Z,28.70
2019-06-26T19:38:07.764Z,28.60
2019-06-26T19:40:36.191Z,28.60
2019-06-26T19:43:04.687Z,28.40
2019-06-26T19:45:33.249Z,28.40
2019-06-26T19:48:01.699Z,28.30
2019-06-26T19:50:30.148Z,28.20
2019-06-26T19:52:58.613Z,28.10
2019-06-26T19:55:27.061Z,28.10
2019-06-26T19:57:55.573Z,28.00
2019-06-26T20:00:24.107Z,27.90
2019-06-26T20:02:52.618Z,27.80
2019-06-26T20:05:21.071Z,27.80
2019-06-26T20:07:49.538Z,27.70
2019-06-26T20:10:18.306Z,27.70
2019-06-26T20:12:46.763Z,27.60
2019-06-26T20:15:15.934Z,27.50
2019-06-26T20:17:44.390Z,27.50
2019-06-26T20:20:14.071Z,27.40
2019-06-26T20:22:42.546Z,27.40
2019-06-26T20:25:11.431Z,27.30
2019-06-26T20:27:39.913Z,27.20
2019-06-26T20:30:10.308Z,27.20
2019-06-26T20:32:38.836Z,27.20
2019-06-26T20:35:07.837Z,27.10
2019-06-26T20:37:36.341Z,27.00
2019-06-26T20:40:09.104Z,27.00
2019-06-26T20:42:37.558Z,26.90
2019-06-26T20:45:06.746Z,26.80
2019-06-26T20:47:35.218Z,26.70
2019-06-26T20:50:05.251Z,26.70
2019-06-26T20:52:33.676Z,26.60
2019-06-26T20:55:02.866Z,26.60
2019-06-26T20:57:31.446Z,26.60
2019-06-26T20:59:59.915Z,26.60
2019-06-26T21:02:28.403Z,26.50
2019-06-26T21:04:56.930Z,26.40
2019-06-26T21:07:25.457Z,26.30
2019-06-26T21:09:53.917Z,26.30
2019-06-26T21:12:22.345Z,26.20
2019-06-26T21:14:50.788Z,26.20
2019-06-26T21:17:19.217Z,26.20
2019-06-26T21:19:47.673Z,26.10
2019-06-26T21:22:16.122Z,26.10
2019-06-26T21:24:44.578Z,26.00
2019-06-26T21:27:13.026Z,26.00
2019-06-26T21:29:41.490Z,25.90
2019-06-26T21:32:09.936Z,25.90
2019-06-26T21:34:38.476Z,25.80
2019-06-26T21:37:06.970Z,25.70
2019-06-26T21:39:35.534Z,25.60
2019-06-26T21:42:04.033Z,25.60
2019-06-26T21:44:32.506Z,25.50
2019-06-26T21:47:00.983Z,25.40
2019-06-26T21:49:29.430Z,25.30
2019-06-26T21:51:57.864Z,25.30
2019-06-26T21:54:26.314Z,25.20
2019-06-26T21:56:54.745Z,25.10
2019-06-26T21:59:23.217Z,25.10
2019-06-26T22:01:51.704Z,25.00
2019-06-26T22:04:20.341Z,25.00
2019-06-26T22:06:48.792Z,24.90
2019-06-26T22:09:17.433Z,24.80
2019-06-26T22:11:45.914Z,24.80
2019-06-26T22:14:14.370Z,24.80
2019-06-26T22:16:42.796Z,24.70
2019-06-26T22:19:11.329Z,24.60
2019-06-26T22:21:39.760Z,24.60
2019-06-26T22:24:08.238Z,24.50
2019-06-26T22:26:36.669Z,24.50
2019-06-26T22:29:05.106Z,24.40
2019-06-26T22:31:33.594Z,24.30
2019-06-26T22:34:02.068Z,24.20
2019-06-26T22:36:30.541Z,24.20
2019-06-26T22:38:59.033Z,24.10
2019-06-26T22:41:27.514Z,24.10
2019-06-26T22:43:56.015Z,24.00
2019-06-26T22:46:24.528Z,23.90
2019-06-26T22:48:52.953Z,23.90
2019-06-26T22:51:21.415Z,23.90
2019-06-26T22:53:49.858Z,23.70
2019-06-26T22:56:18.305Z,23.70
2019-06-26T22:58:46.739Z,23.60
2019-06-26T23:01:15.279Z,23.60
2019-06-26T23:03:43.715Z,23.50
2019-06-26T23:06:12.167Z,23.50
2019-06-26T23:08:40.610Z,23.40
2019-06-26T23:11:09.064Z,23.30
2019-06-26T23:13:37.507Z,23.20
2019-06-26T23:16:05.954Z,23.20
2019-06-26T23:18:34.391Z,23.20
2019-06-26T23:21:02.839Z,23.10
2019-06-26T23:23:31.279Z,23.00
2019-06-26T23:25:59.731Z,22.90
2019-06-26T23:28:28.158Z,22.80
2019-06-26T23:30:56.617Z,22.80
2019-06-26T23:33:25.064Z,22.70
2019-06-26T23:35:53.513Z,22.60
2019-06-26T23:38:22.216Z,22.50
2019-06-26T23:40:50.687Z,22.50
2019-06-26T23:43:19.121Z,22.40
2019-06-26T23:45:47.580Z,22.30
2019-06-26T23:48:16.018Z,22.20
2019-06-26T23:50:44.512Z,22.00
2019-06-26T23:53:13.005Z,21.90
2019-06-26T23:55:41.464Z,21.80
2019-06-26T23:58:09.899Z,21.70
